Time;durP1;ratioP1;P1;durP2;ratioP2;P2;SDS_P1;SDS_P2;PMS_P1;PMS_P2;Temp;Humidity;BMP_temperature;BMP_pressure;BME280_temperature;BME280_humidity;BME280_pressure;Samples;Min_cycle;Max_cycle;Signal;HPM_P1;HPM_P2
2020/12/26 06:31:52;;;;;;;15.90;8.85;;;2.20;96.70;;;;;;5038279;28;20096;-80
2020/12/26 06:34:20;;;;;;;14.57;8.95;;;2.00;97.10;;;;;;5040427;28;20029;-81
2020/12/26 06:47:37;;;;;;;16.23;9.30;;;1.90;97.70;;;;;;5070045;23;20054;-82
2020/12/26 06:50:20;;;;;;;17.48;9.23;;;2.10;97.50;;;;;;5040447;28;20034;-82
2020/12/26 06:52:48;;;;;;;17.55;8.85;;;1.80;97.50;;;;;;5039978;28;20053;-82
2020/12/26 06:55:40;;;;;;;16.67;8.27;;;1.90;97.50;;;;;;5040434;28;20053;-80
2020/12/26 06:58:08;;;;;;;15.98;8.45;;;2.00;97.40;;;;;;5095749;23;20070;-79
2020/12/26 07:00:35;;;;;;;15.85;8.30;;;2.10;97.70;;;;;;5031262;28;20046;-79
2020/12/26 07:03:24;;;;;;;15.23;8.80;;;2.00;97.60;;;;;;5027131;28;20121;-81
2020/12/26 07:11:21;;;;;;;20.05;8.63;;;2.00;97.70;;;;;;5863219;23;20046;-78
2020/12/26 07:13:51;;;;;;;16.25;7.80;;;2.10;97.20;;;;;;4987427;28;20043;-79
2020/12/26 07:16:41;;;;;;;15.32;8.68;;;2.10;97.10;;;;;;4993398;28;20171;-78
2020/12/26 07:19:29;;;;;;;14.18;8.02;;;2.10;97.20;;;;;;4991451;28;20063;-79
2020/12/26 07:21:57;;;;;;;17.88;9.23;;;2.10;97.10;;;;;;4990275;28;20082;-79
2020/12/26 07:24:30;;;;;;;16.52;7.68;;;2.00;97.30;;;;;;4989810;28;20046;-78
2020/12/26 07:27:20;;;;;;;15.10;8.02;;;2.10;97.00;;;;;;4987496;28;20081;-78
2020/12/26 07:30:15;;;;;;;14.80;7.72;;;2.10;97.00;;;;;;4986505;28;20097;-78
2020/12/26 07:32:51;;;;;;;15.27;8.10;;;2.10;97.00;;;;;;4985585;28;20208;-79
2020/12/26 07:35:41;;;;;;;15.27;7.40;;;2.20;97.00;;;;;;4966123;28;20046;-79
2020/12/26 07:38:16;;;;;;;14.05;7.18;;;2.20;96.80;;;;;;4983515;28;20047;-79
2020/12/26 07:40:45;;;;;;;12.95;7.00;;;2.20;96.70;;;;;;4984794;28;20054;-78
2020/12/26 07:43:14;;;;;;;15.23;7.10;;;2.20;96.50;;;;;;4983147;28;20074;-79
2020/12/26 07:45:42;;;;;;;16.08;7.50;;;2.30;96.60;;;;;;4984710;28;20070;-78
2020/12/26 07:48:10;;;;;;;12.88;7.13;;;2.30;96.40;;;;;;4990274;28;20073;-79
2020/12/26 07:50:39;;;;;;;15.55;7.63;;;2.30;96.50;;;;;;4990564;28;20079;-79
2020/12/26 07:53:08;;;;;;;14.13;7.53;;;2.40;96.30;;;;;;4987436;28;20054;-78
2020/12/26 07:55:35;;;;;;;12.48;7.05;;;2.40;96.40;;;;;;4996789;28;20058;-79
2020/12/26 12:02:50;;;;;;;6.57;3.70;;;4.60;83.50;;;;;;5239644;23;20380;-91
2020/12/26 12:05:22;;;;;;;7.03;3.28;;;4.80;81.40;;;;;;5020811;28;20331;-91
2020/12/26 12:55:15;;;;;;;6.72;3.65;;;4.50;83.60;;;;;;4945060;26;20472;-80
2020/12/26 12:57:43;;;;;;;6.80;3.38;;;4.60;79.40;;;;;;4974875;28;20432;-78
2020/12/26 13:00:10;;;;;;;10.05;3.80;;;4.60;79.90;;;;;;4983031;28;20517;-79
2020/12/26 13:02:38;;;;;;;6.45;3.85;;;4.80;79.20;;;;;;4978961;28;20076;-85
2020/12/26 13:05:04;;;;;;;9.40;3.47;;;4.90;78.50;;;;;;4973409;28;20065;-82
2020/12/26 13:07:32;;;;;;;6.50;3.58;;;5.10;78.00;;;;;;4981081;28;20070;-81
2020/12/26 13:14:20;;;;;;;8.10;3.97;;;5.00;74.50;;;;;;4983156;28;20050;-80
2020/12/26 13:22:28;;;;;;;6.93;3.67;;;5.10;74.50;;;;;;5052782;23;20050;-86
2020/12/26 13:25:00;;;;;;;12.07;4.88;;;5.40;73.00;;;;;;4994748;28;20522;-82
2020/12/26 13:28:04;;;;;;;11.73;5.68;;;5.50;73.20;;;;;;4992498;28;20134;-82
2020/12/26 13:30:40;;;;;;;7.90;3.63;;;5.70;72.30;;;;;;5002856;28;20396;-82
2020/12/26 13:42:05;;;;;;;8.13;3.30;;;5.60;71.70;;;;;;5071345;23;20070;-88
2020/12/26 13:44:32;;;;;;;7.70;3.67;;;6.50;69.30;;;;;;4954699;29;20465;-90
2020/12/26 13:46:59;;;;;;;7.18;3.45;;;7.40;63.60;;;;;;4955611;29;20150;-89
2020/12/26 13:49:25;;;;;;;7.57;3.60;;;8.80;58.40;;;;;;4956198;29;20132;-88
2020/12/26 13:51:52;;;;;;;7.85;3.28;;;10.00;53.50;;;;;;4954985;29;20078;-88
2020/12/26 13:54:19;;;;;;;6.53;3.15;;;11.40;49.30;;;;;;4955118;29;20134;-87
2020/12/26 13:56:46;;;;;;;6.32;3.05;;;12.20;45.80;;;;;;4954827;29;20062;-87
2020/12/26 13:59:13;;;;;;;8.13;3.20;;;12.60;45.30;;;;;;4954845;29;20055;-87
2020/12/26 14:01:44;;;;;;;5.72;2.90;;;13.10;43.00;;;;;;4954614;29;20047;-88
2020/12/26 14:04:12;;;;;;;7.10;3.55;;;12.60;43.50;;;;;;4954653;29;20058;-90
2020/12/26 14:06:39;;;;;;;5.72;2.92;;;11.40;45.70;;;;;;4955350;29;20055;-89
2020/12/26 14:09:07;;;;;;;6.78;3.20;;;10.50;47.80;;;;;;4955056;29;20508;-90
2020/12/26 14:11:34;;;;;;;6.80;3.13;;;10.10;48.80;;;;;;4955109;29;20189;-90
2020/12/26 14:14:01;;;;;;;6.72;2.75;;;10.40;48.20;;;;;;4954619;29;20079;-87
2020/12/26 14:16:28;;;;;;;6.05;3.08;;;11.20;46.60;;;;;;4954543;29;20142;-90
2020/12/26 14:18:56;;;;;;;7.45;2.90;;;10.80;46.70;;;;;;4957503;29;20142;-91
2020/12/26 14:21:30;;;;;;;7.70;3.25;;;10.10;48.20;;;;;;4956964;29;20059;-89
2020/12/26 14:23:57;;;;;;;6.30;3.30;;;9.20;50.30;;;;;;4955429;29;20077;-89
2020/12/26 14:26:29;;;;;;;8.15;3.10;;;8.40;52.60;;;;;;4959637;29;20976;-89
2020/12/26 14:34:51;;;;;;;5.68;2.90;;;6.80;58.30;;;;;;5325058;23;20104;-87
2020/12/26 14:37:18;;;;;;;6.22;2.80;;;6.20;60.70;;;;;;5014804;28;20153;-87
2020/12/26 14:39:48;;;;;;;8.57;4.38;;;6.00;62.70;;;;;;5014305;28;20077;-87
2020/12/26 14:42:15;;;;;;;7.90;3.55;;;5.90;63.50;;;;;;5014338;28;20058;-87
2020/12/26 14:44:43;;;;;;;14.10;6.20;;;5.80;64.40;;;;;;5015153;28;20068;-89
2020/12/26 14:47:09;;;;;;;17.42;7.43;;;5.70;64.90;;;;;;5015297;28;20064;-87
2020/12/26 14:49:36;;;;;;;7.13;3.08;;;5.60;65.20;;;;;;5014925;28;20143;-86
2020/12/26 14:52:04;;;;;;;6.57;2.78;;;5.50;66.20;;;;;;5014594;28;20053;-89
2020/12/26 15:09:22;;;;;;;4.97;2.47;;;5.00;69.30;;;;;;5027550;28;20064;-84
